Lincoln Airport
KLNK : now visible

Airfield :











YOU CAN JOIN US ON...

 
LOGIN :

Register | Disclaimer

   EN    FR    IT 

 









Legend :    VFR   Marginal VFR   IFR   Intensive IFR   Very Intensive IFR
Visi :
Ceiling :
>= 8 km
>= 3000ft
5 to 8 km
1000 to 3000 ft
1500m to 5 km
500 to 1000 ft
800 to 1500m
200 to 500 ft
< 800m
< 200 ft
Symbols :   Thunderstorms  Fog  Heavy snow  Heavy precipitations  Wind > 20 kt






- Airport Elevation : 1219 ft
- IATA code : LNK


KLNK - Lincoln

CURRENT METAR :
  • 280554Z 17010KT 10SM CLR 20/14 A2980 RMK AO2 SLP080 T02000139 10272 20194 402890067 58012

EXPIRED METARs :
  • 280454Z 16012KT 10SM CLR 21/14 A2981 RMK AO2 SLP085 T02060139
  • 280354Z 15011KT 10SM CLR 21/14 A2983 RMK AO2 SLP093 T02110139

TAF KLNK
Valid from the 28 at 06:00 until the 29 at 06:00 UTC


280520Z 2806/2906 16011KT P6SM SCT250 WS013/20045KT
FM281400 19013G21KT P6SM FEW090 SCT150
FM290100 16013KT P6SM BKN250
KZMP FIR / North America



MET'MAP, your aeronautical weather chart ! - Copyright ORBIFLY December 2007 - Disclaimer

ORBIFLY MET'MAP TEAM :

Programming & Development : Alexandra Zaïnal
Original concept : Baudouin d'Aumeries
Technical & hardware support : Manuel Goepfert
Assistance : Marc-Olivier Méhu

Contact : metmap@orbifly.com




SOURCES & CREDITS :

   NOAA       Earth
Advisory